Novo Cruzeiro, Brazil
Current Conditions -  °F | °C
As of 3:00 PM on Wednesday 26 Nov 2014 (Local Time) from SBMK Reporting Station
Broken Clouds Broken Clouds  
Wind Chill: 81°   Ceiling: 7000
Heat Index: 82°   Visibility: 6mi
Dew Point: 64°   Wind: 8mph
Humidity: 58%   Direction: 20°NNE
Pressure: 29.94"   Gusts: NA
Location:  17.48°S, 41.89°W
Report Text: SBMK 261700Z 02007KT 350V070 9999 FEW030 BKN070 BKN100 27/18 Q1014
Loading
Personal Weather Stations






























Interactive Weather Map New forecast layout! Learn more

10-Day Weather Forecast

Advertisements
Track Severe Weather on mobile